Etusivu
METAR-TAF:

METAR-TAF

Lentoasemat :

LaGrange-Callaway Airport

LaGrange, Georgia, Yhdysvallat

Leveyspiiri: 33-00-32N, Pituuspiiri: 085-04-21W, korkeus merenpinnasta: 211 m

Tämänhetkinen sää

Tämä raportti tehtiin 20 minuuttia sitten, kello 02.15 UTC
tyyntä
Lämpötila 21°C
Kosteus 94%
Ilmanpaine 1016 hPa
Näkyvyys: 16.1 km
Hajonneita pilviä 5000 ft:n korkeudessa

METAR: KLGC 060215Z AUTO 00000KT 10SM BKN050 21/20 A3001 RMK AO2 T02050200

Aika: 22:35 (02:35 UTC)


TAF: puuttuu

Säähavainnot ja -ennusteet yli 4000 lentoasemalta (METAR- ja TAF-raportit).

Käytössä olevat sääasemat on merkitty karttaan keltaisilla ja punaisilla pisteillä.

Aseta hiiri pisteen päälle nähdäksesi sääaseman nimen.

Klikkaa sitten nähdäksesi säähavainnot ja -ennusteet.

Kartan vaihtaminen: klikkaa mustalla rastilla varustettuja vihreitä pisteitä, niin voit zoomata sisään; viivalla varustettua vihreää pistettä, niin voit zoomata ulos tai vihreitä nuolia, niin pääset viereisille kartoille.


METAR-TAF: